Time;durP1;ratioP1;P1;durP2;ratioP2;P2;SDS_P1;SDS_P2;PMS_P1;PMS_P2;Temp;Humidity;BMP_temperature;BMP_pressure;BME280_temperature;BME280_humidity;BME280_pressure;Samples;Min_cycle;Max_cycle;Signal;HPM_P1;HPM_P2
2023/03/10 00:02:14;;;;;;;;;;;;;;;12.58;91.89;99757.78;5068497;28;20385;-69
2023/03/10 00:04:39;;;;;;;;;;;;;;;12.63;91.51;99755.28;5070656;28;19950;-69
2023/03/10 00:07:05;;;;;;;;;;;;;;;12.54;91.95;99753.41;5079855;28;19919;-69
2023/03/10 00:09:30;;;;;;;;;;;;;;;12.48;92.49;99762.81;5085311;28;19927;-69
2023/03/10 00:11:55;;;;;;;;;;;;;;;12.48;92.94;99753.31;5077919;28;19916;-69
2023/03/10 00:14:21;;;;;;;;;;;;;;;12.53;93.00;99756.00;5084162;28;19924;-69
2023/03/10 00:16:46;;;;;;;;;;;;;;;12.54;92.49;99756.00;5086791;28;20015;-69
2023/03/10 00:19:12;;;;;;;;;;;;;;;12.48;91.91;99752.44;5084774;28;19924;-69
2023/03/10 00:21:37;;;;;;;;;;;;;;;12.48;92.09;99755.03;5084476;28;19945;-68
2023/03/10 00:24:02;;;;;;;;;;;;;;;12.51;91.71;99757.66;5078141;28;19918;-69
2023/03/10 00:26:28;;;;;;;;;;;;;;;12.53;90.92;99754.25;5093405;28;19916;-69
2023/03/10 00:28:53;;;;;;;;;;;;;;;12.50;90.82;99753.34;5093637;28;20373;-69
2023/03/10 00:31:20;;;;;;;;;;;;;;;12.17;92.27;99754.47;5094312;28;19916;-69
2023/03/10 00:33:45;;;;;;;;;;;;;;;12.15;92.20;99762.22;5094156;28;19912;-69
2023/03/10 00:36:17;;;;;;;;;;;;;;;12.14;91.94;99763.06;5093822;28;19927;-69
2023/03/10 00:38:43;;;;;;;;;;;;;;;12.13;92.14;99758.72;5094480;28;19916;-69
2023/03/10 00:41:22;;;;;;;;;;;;;;;12.10;91.70;99763.81;5094124;28;20490;-69
2023/03/10 00:43:48;;;;;;;;;;;;;;;12.03;92.13;99768.00;5093794;28;19916;-70
2023/03/10 00:46:14;;;;;;;;;;;;;;;11.99;91.55;99771.41;5094033;28;19935;-69
2023/03/10 00:48:39;;;;;;;;;;;;;;;11.94;91.46;99768.66;5093598;28;20301;-69
2023/03/10 00:51:04;;;;;;;;;;;;;;;11.93;91.96;99758.31;5073995;28;19969;-69
2023/03/10 00:53:31;;;;;;;;;;;;;;;11.77;92.45;99765.72;5073859;28;20002;-69
2023/03/10 00:56:01;;;;;;;;;;;;;;;11.59;93.82;99761.06;5080088;28;19941;-69
2023/03/10 00:58:27;;;;;;;;;;;;;;;11.62;94.49;99750.78;5093695;28;19918;-69
2023/03/10 01:00:53;;;;;;;;;;;;;;;11.59;94.07;99752.41;5075537;28;19915;-69
2023/03/10 01:03:19;;;;;;;;;;;;;;;11.51;94.36;99743.66;5093269;28;19912;-69
2023/03/10 01:05:44;;;;;;;;;;;;;;;11.49;94.63;99743.63;5093313;28;19919;-69
2023/03/10 01:08:09;;;;;;;;;;;;;;;11.55;94.30;99738.59;5093336;28;19912;-69
2023/03/10 01:10:35;;;;;;;;;;;;;;;11.61;94.11;99730.06;5093422;28;20007;-69
2023/03/10 01:13:00;;;;;;;;;;;;;;;11.66;92.72;99733.63;5092878;28;19911;-69
2023/03/10 01:15:25;;;;;;;;;;;;;;;11.74;91.78;99733.75;5092889;28;19912;-69
2023/03/10 01:17:51;;;;;;;;;;;;;;;11.75;90.68;99745.84;5093091;28;19915;-69
2023/03/10 01:20:17;;;;;;;;;;;;;;;11.40;93.08;99748.56;5093247;28;20560;-69
2023/03/10 01:22:43;;;;;;;;;;;;;;;11.27;94.04;99744.84;5093179;28;19908;-69
2023/03/10 01:25:12;;;;;;;;;;;;;;;11.33;93.88;99740.69;5092816;28;20400;-69
2023/03/10 01:27:37;;;;;;;;;;;;;;;11.30;94.05;99742.31;5092942;28;19912;-69
2023/03/10 01:30:04;;;;;;;;;;;;;;;11.37;93.42;99745.94;5093090;28;19961;-69
2023/03/10 01:32:29;;;;;;;;;;;;;;;11.42;92.61;99747.75;5074635;28;19912;-69
2023/03/10 01:34:54;;;;;;;;;;;;;;;11.37;92.44;99739.03;5093106;28;19973;-69
2023/03/10 01:37:21;;;;;;;;;;;;;;;11.33;91.49;99747.56;5091878;28;19924;-69
2023/03/10 01:39:47;;;;;;;;;;;;;;;11.29;90.57;99740.56;5072341;28;19916;-69
2023/03/10 01:42:12;;;;;;;;;;;;;;;11.08;90.62;99743.53;5091707;28;19927;-69
2023/03/10 01:44:38;;;;;;;;;;;;;;;10.58;94.18;99739.81;5091907;28;19912;-69
2023/03/10 01:47:03;;;;;;;;;;;;;;;10.41;96.25;99731.63;5091233;28;20292;-69
2023/03/10 01:49:37;;;;;;;;;;;;;;;10.44;96.87;99736.88;5091859;28;19919;-69
2023/03/10 01:52:09;;;;;;;;;;;;;;;10.52;96.74;99735.34;5090946;28;19904;-69
2023/03/10 01:54:49;;;;;;;;;;;;;;;10.61;94.99;99744.16;5091635;28;19912;-69
2023/03/10 01:57:15;;;;;;;;;;;;;;;10.65;94.62;99739.13;5091541;28;19908;-69
2023/03/10 01:59:41;;;;;;;;;;;;;;;10.74;94.72;99745.31;5091453;28;20022;-69
2023/03/10 02:02:07;;;;;;;;;;;;;;;10.78;94.05;99742.88;5091423;28;20002;-69
2023/03/10 02:04:34;;;;;;;;;;;;;;;10.83;93.47;99741.25;5091021;28;19916;-69
2023/03/10 02:07:01;;;;;;;;;;;;;;;10.71;92.42;99745.28;5091464;28;19916;-69
2023/03/10 02:09:27;;;;;;;;;;;;;;;10.50;92.26;99752.53;5073148;28;19947;-69
2023/03/10 02:11:52;;;;;;;;;;;;;;;10.27;93.21;99750.97;5091040;28;20397;-69
2023/03/10 02:14:18;;;;;;;;;;;;;;;10.22;94.00;99750.00;5091223;28;19916;-69
2023/03/10 02:16:43;;;;;;;;;;;;;;;10.19;94.77;99746.53;5090857;28;19916;-69
2023/03/10 02:19:15;;;;;;;;;;;;;;;10.27;94.84;99741.56;5090479;28;19912;-69
2023/03/10 02:21:47;;;;;;;;;;;;;;;10.30;94.36;99740.75;5091283;28;19918;-69
2023/03/10 02:24:30;;;;;;;;;;;;;;;10.26;93.34;99746.69;5090915;28;20007;-69
2023/03/10 02:27:00;;;;;;;;;;;;;;;10.09;94.55;99748.78;5090447;28;19926;-69
2023/03/10 02:29:31;;;;;;;;;;;;;;;9.95;96.54;99757.03;5090553;28;19912;-69
2023/03/10 02:31:57;;;;;;;;;;;;;;;9.88;98.24;99749.94;5090789;28;19923;-69
2023/03/10 02:34:25;;;;;;;;;;;;;;;9.86;99.31;99749.91;5090668;28;19912;-69
2023/03/10 02:36:50;;;;;;;;;;;;;;;9.83;99.44;99757.56;5050262;28;1161424;-69
2023/03/10 02:39:16;;;;;;;;;;;;;;;9.67;100.00;99748.50;5091789;28;19916;-69
2023/03/10 02:41:41;;;;;;;;;;;;;;;9.63;99.63;99763.84;5092232;28;19991;-69
2023/03/10 02:44:10;;;;;;;;;;;;;;;9.51;99.32;99766.94;5091397;28;19944;-69
2023/03/10 02:46:36;;;;;;;;;;;;;;;9.57;99.13;99769.69;5091762;28;19935;-69
2023/03/10 02:49:03;;;;;;;;;;;;;;;9.51;99.60;99765.22;5091222;28;20377;-69
2023/03/10 02:51:30;;;;;;;;;;;;;;;9.34;100.00;99754.41;5083219;28;20346;-69
2023/03/10 02:53:56;;;;;;;;;;;;;;;9.40;100.00;99761.47;5091536;28;19916;-69
2023/03/10 02:56:21;;;;;;;;;;;;;;;9.41;100.00;99759.75;5091701;28;20011;-69
2023/03/10 02:58:46;;;;;;;;;;;;;;;9.36;100.00;99763.06;5106895;28;19919;-69
2023/03/10 03:01:11;;;;;;;;;;;;;;;9.42;99.92;99770.13;5091292;28;20469;-69
2023/03/10 03:03:37;;;;;;;;;;;;;;;9.53;98.11;99779.03;5091307;28;19912;-69
2023/03/10 03:06:02;;;;;;;;;;;;;;;9.63;97.06;99769.88;5091344;28;19912;-69
2023/03/10 03:08:28;;;;;;;;;;;;;;;9.71;96.45;99770.97;5090956;28;19912;-69
2023/03/10 03:10:53;;;;;;;;;;;;;;;9.76;95.76;99768.53;5090871;28;19918;-69
2023/03/10 03:13:18;;;;;;;;;;;;;;;9.68;95.61;99772.56;5090803;28;19912;-69
2023/03/10 03:15:44;;;;;;;;;;;;;;;9.66;95.37;99767.38;5090687;28;20305;-69
2023/03/10 03:18:09;;;;;;;;;;;;;;;9.60;96.48;99768.91;5090992;28;19926;-68
2023/03/10 03:20:35;;;;;;;;;;;;;;;9.59;97.27;99767.16;5090852;28;19912;-69
2023/03/10 03:23:01;;;;;;;;;;;;;;;9.63;97.56;99766.41;5090688;28;19916;-69
2023/03/10 03:25:27;;;;;;;;;;;;;;;9.64;97.58;99776.75;5090952;28;19965;-68
2023/03/10 03:27:53;;;;;;;;;;;;;;;9.70;97.13;99776.06;5090492;28;20288;-69
2023/03/10 03:30:20;;;;;;;;;;;;;;;9.65;97.01;99777.66;5091047;28;19912;-69
2023/03/10 03:32:46;;;;;;;;;;;;;;;9.64;96.34;99784.50;5090886;28;20426;-69
2023/03/10 03:35:16;;;;;;;;;;;;;;;9.58;97.05;99789.47;5090498;28;19915;-69
2023/03/10 03:37:41;;;;;;;;;;;;;;;9.50;97.63;99789.25;5090513;28;19950;-68
2023/03/10 03:40:11;;;;;;;;;;;;;;;9.59;98.25;99790.34;5090463;28;19916;-69
2023/03/10 03:42:40;;;;;;;;;;;;;;;9.60;97.34;99800.69;5072406;28;19919;-69
2023/03/10 03:45:06;;;;;;;;;;;;;;;9.51;97.74;99800.44;5090781;28;19912;-68
2023/03/10 03:47:32;;;;;;;;;;;;;;;9.46;98.46;99799.41;5090298;28;19912;-69
2023/03/10 03:49:57;;;;;;;;;;;;;;;9.33;100.00;99787.84;5090584;28;20449;-69
2023/03/10 03:52:23;;;;;;;;;;;;;;;9.17;100.00;99783.91;5090458;28;19961;-68
2023/03/10 03:54:48;;;;;;;;;;;;;;;9.25;100.00;99787.63;5090761;28;20003;-69
2023/03/10 03:57:13;;;;;;;;;;;;;;;9.19;100.00;99796.00;5089798;28;19916;-69
2023/03/10 03:59:38;;;;;;;;;;;;;;;9.26;100.00;99796.22;5090835;28;19974;-69
2023/03/10 04:02:04;;;;;;;;;;;;;;;9.23;100.00;99797.88;5090730;28;19916;-69
2023/03/10 04:04:29;;;;;;;;;;;;;;;9.23;100.00;99797.88;5090624;28;19973;-69
2023/03/10 04:06:54;;;;;;;;;;;;;;;9.23;100.00;99778.97;5089924;28;19912;-69
2023/03/10 04:09:19;;;;;;;;;;;;;;;9.02;100.00;99781.72;5090567;28;19912;-69
2023/03/10 04:11:45;;;;;;;;;;;;;;;9.05;100.00;99779.28;5089754;28;20357;-69
2023/03/10 04:14:10;;;;;;;;;;;;;;;9.11;100.00;99784.63;5090204;28;20332;-69
2023/03/10 04:16:35;;;;;;;;;;;;;;;9.17;100.00;99784.81;5090219;28;19908;-69
2023/03/10 04:19:01;;;;;;;;;;;;;;;9.24;100.00;99770.41;5090398;28;19958;-69
2023/03/10 04:21:26;;;;;;;;;;;;;;;9.20;100.00;99773.72;5090054;28;19908;-69
2023/03/10 04:23:52;;;;;;;;;;;;;;;9.15;100.00;99776.16;5089970;28;20007;-69
2023/03/10 04:26:17;;;;;;;;;;;;;;;8.94;100.00;99766.03;5090003;28;19912;-69
2023/03/10 04:28:42;;;;;;;;;;;;;;;9.01;100.00;99764.53;5090633;28;19986;-69
2023/03/10 04:31:15;;;;;;;;;;;;;;;9.06;100.00;99768.16;5092167;28;20377;-69
2023/03/10 04:33:41;;;;;;;;;;;;;;;9.16;100.00;99772.75;5098251;28;20352;-69
2023/03/10 04:36:06;;;;;;;;;;;;;;;9.26;100.00;99771.34;5090054;28;19964;-69
2023/03/10 04:38:31;;;;;;;;;;;;;;;9.30;100.00;99772.31;5090179;28;19916;-69
2023/03/10 04:40:57;;;;;;;;;;;;;;;9.33;100.00;99778.44;5089691;28;20373;-69
2023/03/10 04:43:23;;;;;;;;;;;;;;;9.40;100.00;99766.59;5090216;28;19912;-69
2023/03/10 04:45:48;;;;;;;;;;;;;;;9.36;100.00;99762.19;5090142;28;19994;-69
2023/03/10 04:48:13;;;;;;;;;;;;;;;9.16;100.00;99767.59;5089725;28;20274;-69
2023/03/10 04:50:39;;;;;;;;;;;;;;;9.08;100.00;99763.91;5090552;28;19912;-69
2023/03/10 04:53:04;;;;;;;;;;;;;;;9.18;100.00;99765.06;5093928;28;19915;-68
2023/03/10 04:55:29;;;;;;;;;;;;;;;9.22;100.00;99777.19;5093793;28;20281;-69
2023/03/10 04:57:55;;;;;;;;;;;;;;;9.30;100.00;99775.75;5093632;28;19957;-69
2023/03/10 05:00:20;;;;;;;;;;;;;;;9.18;100.00;99771.13;5093169;28;19919;-69
2023/03/10 05:02:46;;;;;;;;;;;;;;;9.15;100.00;99778.72;5093344;28;19942;-69
2023/03/10 05:05:11;;;;;;;;;;;;;;;9.15;100.00;99781.31;5093643;28;19912;-69
2023/03/10 05:07:37;;;;;;;;;;;;;;;9.19;100.00;99782.28;5093470;28;19912;-68
2023/03/10 05:10:02;;;;;;;;;;;;;;;9.03;100.00;99786.94;5093047;28;19912;-69
2023/03/10 05:12:28;;;;;;;;;;;;;;;9.00;100.00;99784.25;5093489;28;20015;-69
2023/03/10 05:14:53;;;;;;;;;;;;;;;8.98;100.00;99783.31;5093187;28;20302;-70
2023/03/10 05:17:18;;;;;;;;;;;;;;;8.89;100.00;99777.91;5093502;28;20010;-69
2023/03/10 05:19:43;;;;;;;;;;;;;;;8.76;100.00;99779.19;5093417;28;20343;-69
2023/03/10 05:22:11;;;;;;;;;;;;;;;8.74;100.00;99783.41;5093804;28;20274;-69
2023/03/10 05:24:36;;;;;;;;;;;;;;;8.75;100.00;99782.59;5092583;28;19935;-69
2023/03/10 05:27:01;;;;;;;;;;;;;;;8.92;100.00;99782.25;5093329;28;20369;-69
2023/03/10 05:29:27;;;;;;;;;;;;;;;9.05;100.00;99787.84;5084123;28;20010;-69
2023/03/10 05:31:52;;;;;;;;;;;;;;;9.07;100.00;99793.03;5093246;28;20008;-70
2023/03/10 05:34:17;;;;;;;;;;;;;;;9.07;100.00;99790.47;5092959;28;19966;-69
2023/03/10 05:36:43;;;;;;;;;;;;;;;9.23;100.00;99795.31;5092880;28;19923;-69
2023/03/10 05:39:09;;;;;;;;;;;;;;;9.26;100.00;99801.34;5092458;28;20018;-69
2023/03/10 05:41:35;;;;;;;;;;;;;;;9.20;100.00;99799.47;5093016;28;19916;-69
2023/03/10 05:44:01;;;;;;;;;;;;;;;9.14;100.00;99795.00;5092785;28;20277;-69
2023/03/10 05:46:26;;;;;;;;;;;;;;;9.04;100.00;99793.81;5093144;28;19969;-68
2023/03/10 05:48:51;;;;;;;;;;;;;;;8.92;100.00;99790.84;5093593;28;20436;-68
2023/03/10 05:51:16;;;;;;;;;;;;;;;8.96;100.00;99795.28;5088138;28;19917;-68
2023/03/10 05:53:42;;;;;;;;;;;;;;;9.15;100.00;99794.19;5072791;28;19923;-69
2023/03/10 05:56:12;;;;;;;;;;;;;;;9.23;100.00;99797.00;5072789;28;20003;-68
2023/03/10 05:58:37;;;;;;;;;;;;;;;9.37;100.00;99797.41;5072953;28;20295;-68
2023/03/10 06:01:03;;;;;;;;;;;;;;;9.48;100.00;99795.16;5072876;28;20010;-68
2023/03/10 06:03:28;;;;;;;;;;;;;;;9.54;100.00;99797.94;5071790;28;19919;-68
2023/03/10 06:05:54;;;;;;;;;;;;;;;9.60;100.00;99797.25;5080734;28;19913;-69
2023/03/10 06:08:20;;;;;;;;;;;;;;;9.57;100.00;99795.47;5087911;28;20008;-66
2023/03/10 06:10:45;;;;;;;;;;;;;;;9.64;100.00;99793.94;5076197;28;19944;-68
2023/03/10 06:13:10;;;;;;;;;;;;;;;9.62;100.00;99798.16;5069683;28;19916;-68
2023/03/10 06:15:36;;;;;;;;;;;;;;;9.66;100.00;99797.44;5069235;28;19922;-69
2023/03/10 06:18:01;;;;;;;;;;;;;;;9.65;100.00;99790.53;5070336;28;19916;-69
2023/03/10 06:20:27;;;;;;;;;;;;;;;9.59;100.00;99798.94;5070395;28;19981;-68
2023/03/10 06:22:52;;;;;;;;;;;;;;;9.57;100.00;99800.63;5077629;28;20011;-69
2023/03/10 06:25:18;;;;;;;;;;;;;;;9.62;100.00;99795.59;5091289;28;20006;-70
2023/03/10 06:27:43;;;;;;;;;;;;;;;9.68;100.00;99793.19;5091469;28;19912;-72
2023/03/10 06:30:09;;;;;;;;;;;;;;;9.75;100.00;99789.97;5091992;28;19919;-70
2023/03/10 06:32:34;;;;;;;;;;;;;;;9.79;100.00;99796.09;5091709;28;20441;-68
2023/03/10 06:34:59;;;;;;;;;;;;;;;9.84;100.00;99794.53;5091435;28;19951;-68
2023/03/10 06:37:25;;;;;;;;;;;;;;;9.84;100.00;99795.41;5091728;28;19915;-69
2023/03/10 06:39:52;;;;;;;;;;;;;;;9.94;100.00;99786.22;5091070;28;19927;-68
2023/03/10 06:42:18;;;;;;;;;;;;;;;10.08;100.00;99789.19;5073473;28;20381;-68
2023/03/10 06:44:43;;;;;;;;;;;;;;;10.12;100.00;99790.13;5091078;28;20006;-68
2023/03/10 06:47:08;;;;;;;;;;;;;;;10.32;100.00;99790.72;5091339;28;20373;-69
2023/03/10 06:49:34;;;;;;;;;;;;;;;10.47;100.00;99785.97;5091119;28;19965;-68
2023/03/10 06:51:59;;;;;;;;;;;;;;;10.54;100.00;99787.00;5088534;28;19912;-68
2023/03/10 06:54:25;;;;;;;;;;;;;;;10.59;100.00;99787.13;5090921;28;19923;-68
2023/03/10 06:56:50;;;;;;;;;;;;;;;10.65;100.00;99787.28;5091394;28;19912;-68
2023/03/10 06:59:16;;;;;;;;;;;;;;;10.72;100.00;99788.34;5090955;28;19912;-68
2023/03/10 07:01:42;;;;;;;;;;;;;;;10.82;100.00;99785.13;5098905;28;19998;-68
2023/03/10 07:04:07;;;;;;;;;;;;;;;10.93;100.00;99780.22;5093328;28;19916;-69
2023/03/10 07:06:33;;;;;;;;;;;;;;;10.99;100.00;99781.25;5083496;28;20003;-68
2023/03/10 07:08:58;;;;;;;;;;;;;;;11.11;100.00;99788.41;5069921;28;19964;-69
2023/03/10 07:11:24;;;;;;;;;;;;;;;11.24;100.00;99786.09;5070077;28;19951;-68
2023/03/10 07:13:49;;;;;;;;;;;;;;;11.44;100.00;99784.88;5070109;28;19919;-69
2023/03/10 07:16:15;;;;;;;;;;;;;;;11.61;100.00;99787.84;5070317;28;19916;-68
2023/03/10 07:18:41;;;;;;;;;;;;;;;11.81;100.00;99788.25;5070054;28;19966;-69
2023/03/10 07:21:07;;;;;;;;;;;;;;;11.82;100.00;99781.34;5069938;28;19917;-69
2023/03/10 07:23:33;;;;;;;;;;;;;;;11.91;100.00;99798.78;5070027;28;19916;-69
2023/03/10 07:25:58;;;;;;;;;;;;;;;12.03;99.39;99798.19;5069920;28;19963;-68
2023/03/10 07:28:24;;;;;;;;;;;;;;;12.09;99.33;99799.19;5070052;28;19916;-69
2023/03/10 07:30:49;;;;;;;;;;;;;;;12.19;98.27;99799.38;5070371;28;19927;-69
2023/03/10 07:33:21;;;;;;;;;;;;;;;12.26;97.03;99798.63;5070253;28;20003;-69
2023/03/10 07:35:47;;;;;;;;;;;;;;;12.30;96.32;99792.69;5070137;28;19977;-68
2023/03/10 07:38:12;;;;;;;;;;;;;;;12.37;96.33;99788.50;5069737;28;19916;-68
2023/03/10 07:40:38;;;;;;;;;;;;;;;12.42;95.88;99784.25;5071631;28;20413;-68
2023/03/10 07:43:04;;;;;;;;;;;;;;;12.51;94.81;99786.16;5070201;28;19916;-68
2023/03/10 07:45:31;;;;;;;;;;;;;;;12.64;95.05;99782.94;5069594;28;19935;-68
2023/03/10 07:47:57;;;;;;;;;;;;;;;12.72;94.47;99775.28;5069684;28;20429;-69
2023/03/10 07:50:22;;;;;;;;;;;;;;;12.89;93.08;99770.41;5069310;28;19932;-68
2023/03/10 07:52:48;;;;;;;;;;;;;;;13.02;92.60;99774.94;5069437;28;20390;-69
2023/03/10 07:55:13;;;;;;;;;;;;;;;13.18;91.72;99772.56;5069884;28;19913;-68
2023/03/10 07:57:38;;;;;;;;;;;;;;;13.43;90.59;99774.72;5069700;28;19913;-69
2023/03/10 08:00:04;;;;;;;;;;;;;;;13.62;88.46;99779.28;5070677;28;19956;-69
2023/03/10 08:02:30;;;;;;;;;;;;;;;13.77;86.63;99769.13;5069794;28;20279;-69
2023/03/10 08:04:55;;;;;;;;;;;;;;;13.89;85.50;99766.66;5071468;28;19924;-69
2023/03/10 08:07:21;;;;;;;;;;;;;;;13.93;85.53;99780.53;5069256;28;19913;-69
2023/03/10 08:09:50;;;;;;;;;;;;;;;13.97;86.47;99768.47;5069820;28;20392;-69
2023/03/10 08:12:15;;;;;;;;;;;;;;;14.13;85.42;99774.69;5069735;28;20373;-69
2023/03/10 08:14:41;;;;;;;;;;;;;;;14.19;84.25;99775.66;5069424;28;19956;-68
2023/03/10 08:17:06;;;;;;;;;;;;;;;14.21;84.84;99773.06;5069575;28;19978;-68
2023/03/10 08:19:31;;;;;;;;;;;;;;;14.25;85.11;99772.25;5068855;28;19916;-69
2023/03/10 08:21:57;;;;;;;;;;;;;;;14.33;84.22;99786.19;5069372;28;20669;-69
2023/03/10 08:24:23;;;;;;;;;;;;;;;14.38;83.50;99786.22;5069500;28;19950;-69
2023/03/10 08:26:48;;;;;;;;;;;;;;;14.39;83.95;99782.78;5072423;28;20354;-69
2023/03/10 08:29:13;;;;;;;;;;;;;;;14.44;84.17;99786.28;5073473;28;19912;-69
2023/03/10 08:31:39;;;;;;;;;;;;;;;14.42;83.48;99780.22;5073046;28;19912;-69
2023/03/10 08:34:04;;;;;;;;;;;;;;;14.44;84.12;99777.63;5093906;28;19916;-69
2023/03/10 08:36:31;;;;;;;;;;;;;;;14.53;84.47;99776.00;5093580;28;19946;-68
2023/03/10 08:38:59;;;;;;;;;;;;;;;14.51;84.02;99772.50;5094172;28;19997;-68
2023/03/10 08:41:29;;;;;;;;;;;;;;;14.51;84.25;99780.28;5093885;28;20016;-68
2023/03/10 08:43:56;;;;;;;;;;;;;;;14.56;83.59;99778.59;5093921;28;19923;-68
2023/03/10 08:46:23;;;;;;;;;;;;;;;14.60;85.14;99773.47;5093630;28;19919;-68
2023/03/10 08:48:49;;;;;;;;;;;;;;;14.71;85.07;99777.91;5093556;28;19915;-68
2023/03/10 08:51:14;;;;;;;;;;;;;;;14.80;83.63;99777.13;5094042;28;19919;-68
2023/03/10 08:53:39;;;;;;;;;;;;;;;14.81;84.53;99776.28;5093532;28;19919;-68
2023/03/10 08:56:05;;;;;;;;;;;;;;;14.88;85.27;99772.00;5093404;28;19912;-68
2023/03/10 08:58:30;;;;;;;;;;;;;;;14.94;84.65;99759.06;5093736;28;20028;-68
2023/03/10 09:00:55;;;;;;;;;;;;;;;15.03;84.66;99753.06;5093570;28;20011;-69
2023/03/10 09:03:21;;;;;;;;;;;;;;;15.09;83.66;99750.50;5091989;28;20050;-69
2023/03/10 09:05:46;;;;;;;;;;;;;;;15.12;83.68;99742.72;5093939;28;20374;-69
2023/03/10 09:08:12;;;;;;;;;;;;;;;15.24;84.19;99748.84;5093301;28;19916;-69
2023/03/10 09:10:37;;;;;;;;;;;;;;;15.30;83.96;99739.38;5093481;28;19915;-69
2023/03/10 09:13:03;;;;;;;;;;;;;;;15.37;83.76;99748.94;5086336;28;19967;-69
2023/03/10 09:15:28;;;;;;;;;;;;;;;15.42;83.46;99743.75;5083978;28;19912;-68
2023/03/10 09:17:54;;;;;;;;;;;;;;;15.43;84.17;99735.09;5091041;28;20339;-68
2023/03/10 09:20:24;;;;;;;;;;;;;;;15.52;84.20;99742.09;5093100;28;20597;-68
2023/03/10 09:22:49;;;;;;;;;;;;;;;15.53;83.22;99730.81;5090056;28;19969;-69
2023/03/10 09:25:15;;;;;;;;;;;;;;;15.56;83.41;99727.38;5089439;28;19916;-68
2023/03/10 09:27:40;;;;;;;;;;;;;;;15.58;84.13;99723.91;5092771;28;19995;-68
2023/03/10 09:30:06;;;;;;;;;;;;;;;15.66;84.98;99730.03;5091664;28;19978;-69
2023/03/10 09:32:31;;;;;;;;;;;;;;;15.79;84.20;99722.25;5072413;28;19912;-67
2023/03/10 09:34:56;;;;;;;;;;;;;;;15.86;83.28;99713.63;5092896;28;19951;-70
2023/03/10 09:37:21;;;;;;;;;;;;;;;15.95;82.72;99708.47;5093042;28;19916;-69
2023/03/10 09:39:47;;;;;;;;;;;;;;;16.06;82.36;99699.78;5093102;28;19973;-69
2023/03/10 09:42:12;;;;;;;;;;;;;;;16.14;82.67;99700.69;5092177;28;19918;-69
2023/03/10 09:44:42;;;;;;;;;;;;;;;16.21;82.20;99697.22;5092673;28;19919;-69
2023/03/10 09:47:07;;;;;;;;;;;;;;;16.29;82.53;99705.06;5088568;28;19954;-69
2023/03/10 09:49:43;;;;;;;;;;;;;;;16.33;82.21;99698.97;5092826;28;19959;-69
2023/03/10 09:52:23;;;;;;;;;;;;;;;16.41;82.10;99688.56;5088057;28;19907;-69
2023/03/10 09:55:09;;;;;;;;;;;;;;;16.44;81.93;99679.00;5092890;28;19918;-68
2023/03/10 09:57:34;;;;;;;;;;;;;;;16.60;81.37;99677.28;5092093;28;19908;-69
2023/03/10 10:00:04;;;;;;;;;;;;;;;16.75;81.43;99676.38;5092450;28;19922;-70
2023/03/10 10:02:33;;;;;;;;;;;;;;;16.79;79.33;99667.69;5095204;28;19916;-69
2023/03/10 10:05:00;;;;;;;;;;;;;;;16.83;78.54;99673.75;5101395;28;19908;-69
2023/03/10 10:07:27;;;;;;;;;;;;;;;16.94;77.70;99681.59;5092300;28;20400;-70
2023/03/10 10:10:15;;;;;;;;;;;;;;;16.98;77.57;99679.00;5092240;28;19918;-69
2023/03/10 10:12:42;;;;;;;;;;;;;;;17.03;76.35;99678.97;5029801;28;20012;-70
2023/03/10 10:15:15;;;;;;;;;;;;;;;17.09;76.85;99665.06;5029560;28;20375;-69
2023/03/10 10:18:04;;;;;;;;;;;;;;;17.13;76.27;99658.94;5029709;28;19920;-69
2023/03/10 10:20:35;;;;;;;;;;;;;;;17.13;76.26;99656.34;5020978;28;19913;-69
2023/03/10 10:23:00;;;;;;;;;;;;;;;17.22;76.05;99660.66;5029543;28;19928;-69
2023/03/10 10:25:29;;;;;;;;;;;;;;;17.35;75.71;99648.47;5029341;28;19988;-69
2023/03/10 10:27:55;;;;;;;;;;;;;;;17.37;75.15;99642.38;5029299;28;19913;-69
2023/03/10 10:30:39;;;;;;;;;;;;;;;17.43;75.83;99644.06;5029380;28;19920;-69
2023/03/10 10:33:05;;;;;;;;;;;;;;;17.46;76.48;99639.69;5028989;28;19905;-68
2023/03/10 10:35:33;;;;;;;;;;;;;;;17.53;75.44;99637.91;5029119;28;19917;-68
2023/03/10 10:38:04;;;;;;;;;;;;;;;17.53;75.17;99645.75;5029162;28;19917;-68
2023/03/10 10:40:32;;;;;;;;;;;;;;;17.54;75.53;99631.81;5029136;28;19971;-68
2023/03/10 10:42:59;;;;;;;;;;;;;;;17.58;75.02;99637.91;5029011;28;19929;-69
2023/03/10 10:45:29;;;;;;;;;;;;;;;17.57;75.92;99625.72;5028856;28;19919;-68
2023/03/10 10:47:54;;;;;;;;;;;;;;;17.61;75.63;99628.31;5028223;28;19913;-69
2023/03/10 10:50:23;;;;;;;;;;;;;;;17.72;74.92;99628.25;5073342;28;20025;-68
2023/03/10 10:52:51;;;;;;;;;;;;;;;17.77;75.15;99617.81;5098566;28;20008;-68
2023/03/10 10:55:23;;;;;;;;;;;;;;;17.96;75.64;99605.50;5093326;28;19935;-68
2023/03/10 10:57:59;;;;;;;;;;;;;;;18.02;75.06;99594.13;5100443;28;19915;-68
2023/03/10 11:00:29;;;;;;;;;;;;;;;18.25;75.64;99592.19;5089406;28;19912;-69
2023/03/10 11:02:54;;;;;;;;;;;;;;;18.48;73.76;99585.94;5091623;28;19912;-68
2023/03/10 11:05:24;;;;;;;;;;;;;;;18.44;73.48;99573.75;5091633;28;20429;-71
2023/03/10 11:07:50;;;;;;;;;;;;;;;18.61;73.19;99575.34;5091504;28;19919;-69
2023/03/10 11:10:24;;;;;;;;;;;;;;;18.73;72.71;99575.22;5091102;28;19911;-68
2023/03/10 11:12:55;;;;;;;;;;;;;;;18.85;71.75;99568.97;5091458;28;19951;-69
2023/03/10 11:15:26;;;;;;;;;;;;;;;18.98;71.71;99548.78;5078891;28;20332;-69
2023/03/10 11:17:55;;;;;;;;;;;;;;;19.03;71.05;99537.41;5089785;28;19998;-69
2023/03/10 11:20:44;;;;;;;;;;;;;;;18.97;71.46;99529.63;5053948;28;19915;-69
2023/03/10 11:23:15;;;;;;;;;;;;;;;19.03;70.79;99526.94;5090759;28;19912;-68
2023/03/10 11:25:43;;;;;;;;;;;;;;;19.11;70.23;99524.22;5072878;28;19919;-69
2023/03/10 11:28:27;;;;;;;;;;;;;;;18.92;70.47;99520.97;5091193;28;19916;-70
2023/03/10 11:31:13;;;;;;;;;;;;;;;19.04;70.39;99517.31;5090791;28;19935;-68
2023/03/10 11:33:51;;;;;;;;;;;;;;;18.96;70.74;99509.59;5091072;28;19962;-68
2023/03/10 11:36:16;;;;;;;;;;;;;;;19.05;70.44;99495.50;5090573;28;19916;-68
2023/03/10 11:38:45;;;;;;;;;;;;;;;19.02;69.96;99500.81;5090819;28;20369;-69
2023/03/10 11:41:13;;;;;;;;;;;;;;;19.05;69.82;99491.16;5090525;28;19914;-69
2023/03/10 11:43:38;;;;;;;;;;;;;;;19.07;70.12;99489.38;5090649;28;19912;-68
2023/03/10 11:46:23;;;;;;;;;;;;;;;19.03;70.29;99473.78;5090530;28;19912;-69
2023/03/10 11:49:03;;;;;;;;;;;;;;;18.97;70.78;99463.38;5090598;28;20373;-68
2023/03/10 11:51:34;;;;;;;;;;;;;;;19.03;70.60;99463.31;5091009;28;19912;-68
2023/03/10 11:54:02;;;;;;;;;;;;;;;18.93;71.37;99449.47;5090437;28;19908;-68
2023/03/10 11:56:28;;;;;;;;;;;;;;;18.77;71.21;99438.31;5090305;28;19927;-68
2023/03/10 11:58:56;;;;;;;;;;;;;;;18.72;72.60;99441.00;5072410;28;20313;-68
2023/03/10 12:01:31;;;;;;;;;;;;;;;18.73;72.41;99441.88;5094773;28;19951;-68
2023/03/10 12:03:59;;;;;;;;;;;;;;;18.86;72.12;99440.81;5094929;28;19912;-68
2023/03/10 12:06:36;;;;;;;;;;;;;;;19.05;72.15;99427.50;5094353;28;19999;-68
2023/03/10 12:09:02;;;;;;;;;;;;;;;19.14;71.56;99430.00;5094315;28;19920;-68
2023/03/10 12:11:28;;;;;;;;;;;;;;;18.91;70.57;99428.56;5094657;28;19916;-68
2023/03/10 12:14:00;;;;;;;;;;;;;;;19.02;70.58;99422.34;5094689;28;20384;-70
2023/03/10 12:16:34;;;;;;;;;;;;;;;18.97;69.86;99432.00;5094517;28;20011;-68
2023/03/10 12:19:00;;;;;;;;;;;;;;;18.96;70.09;99423.28;5094316;28;20500;-70
2023/03/10 12:21:27;;;;;;;;;;;;;;;19.01;69.71;99416.22;5094141;28;19942;-68
2023/03/10 12:23:53;;;;;;;;;;;;;;;19.03;69.52;99405.75;5094362;28;19912;-68
2023/03/10 12:26:37;;;;;;;;;;;;;;;19.12;68.71;99415.22;5094480;28;19916;-68
2023/03/10 12:29:20;;;;;;;;;;;;;;;19.06;67.52;99380.38;5094389;28;19912;-70
2023/03/10 12:31:50;;;;;;;;;;;;;;;18.94;68.30;99400.66;5082390;28;19912;-70
2023/03/10 12:34:22;;;;;;;;;;;;;;;19.15;67.81;99400.34;5094150;28;20043;-68
2023/03/10 12:36:51;;;;;;;;;;;;;;;19.34;67.25;99403.53;5094176;28;19973;-68
2023/03/10 12:39:31;;;;;;;;;;;;;;;19.59;66.11;99395.25;5094405;28;19923;-69
2023/03/10 12:42:00;;;;;;;;;;;;;;;19.75;67.00;99384.50;5094432;28;19912;-69
2023/03/10 12:44:44;;;;;;;;;;;;;;;19.60;65.71;99383.03;5090426;28;20392;-70
2023/03/10 12:47:24;;;;;;;;;;;;;;;19.42;66.04;99389.44;5084836;28;19919;-70
2023/03/10 12:49:49;;;;;;;;;;;;;;;19.19;65.08;99403.75;5094177;28;20390;-69